Time;durP1;ratioP1;P1;durP2;ratioP2;P2;SDS_P1;SDS_P2;PMS_P1;PMS_P2;Temp;Humidity;BMP_temperature;BMP_pressure;BME280_temperature;BME280_humidity;BME280_pressure;Samples;Min_cycle;Max_cycle;Signal;HPM_P1;HPM_P2
2022/05/24 00:01:06;;;;;;;9.95;3.72;;;;;;;9.16;35.04;98715.94;5015291;28;20064;-79
2022/05/24 00:03:34;;;;;;;8.88;3.30;;;;;;;9.18;34.91;98722.88;4998281;28;20088;-77
2022/05/24 00:06:01;;;;;;;9.88;3.20;;;;;;;9.04;35.29;98697.81;5015617;28;20125;-78
2022/05/24 00:08:28;;;;;;;8.02;3.38;;;;;;;9.14;35.28;98726.38;5026095;28;20455;-77
2022/05/24 00:10:55;;;;;;;11.93;3.97;;;;;;;9.11;35.38;98731.59;5025046;28;20504;-77
2022/05/24 00:13:22;;;;;;;9.65;4.00;;;;;;;9.06;36.01;98738.59;5023736;28;20062;-78
2022/05/24 00:15:50;;;;;;;6.82;3.25;;;;;;;9.00;35.74;98744.72;5023228;28;20061;-77
2022/05/24 00:18:27;;;;;;;8.95;3.45;;;;;;;8.93;36.47;98732.63;5022987;28;20060;-78
2022/05/24 00:20:57;;;;;;;11.98;4.43;;;;;;;8.74;36.68;98718.88;5025648;28;20053;-78
2022/05/24 00:23:25;;;;;;;;;;;;;;;8.63;36.31;98735.47;5024713;28;20061;-77
2022/05/24 00:25:57;;;;;;;9.55;3.65;;;;;;;8.65;37.62;98741.50;5015818;28;20280;-78
2022/05/24 00:28:27;;;;;;;9.35;4.45;;;;;;;8.57;37.31;98728.56;5013639;28;20477;-78
2022/05/24 00:30:59;;;;;;;13.38;4.70;;;;;;;8.61;37.17;98738.94;5024106;28;20053;-78
2022/05/24 00:33:27;;;;;;;13.60;4.13;;;;;;;8.62;37.63;98747.59;5034072;28;20073;-77
2022/05/24 00:35:55;;;;;;;14.68;4.45;;;;;;;8.13;37.49;98662.00;5025518;28;20058;-78
2022/05/24 00:38:36;;;;;;;13.73;4.18;;;;;;;8.63;37.34;98745.88;5014371;28;20041;-78
2022/05/24 00:41:12;;;;;;;11.63;4.65;;;;;;;8.42;37.35;98707.84;5014663;28;20140;-79
2022/05/24 00:43:45;;;;;;;9.18;4.03;;;;;;;8.48;37.67;98733.84;5014399;28;20108;-78
2022/05/24 00:46:17;;;;;;;9.60;3.22;;;;;;;8.54;37.42;98747.66;5014118;28;20113;-78
2022/05/24 00:48:56;;;;;;;11.52;3.40;;;;;;;8.55;37.41;98738.97;5014140;28;20061;-78
2022/05/24 00:51:32;;;;;;;8.02;3.25;;;;;;;8.52;36.98;98728.59;5014945;28;20053;-77
2022/05/24 00:54:00;;;;;;;11.27;3.97;;;;;;;8.53;37.36;98743.31;5013795;28;20060;-78
2022/05/24 00:56:58;;;;;;;8.00;3.05;;;;;;;8.51;37.46;98732.06;5013716;28;20562;-79
2022/05/24 00:59:55;;;;;;;6.78;2.80;;;;;;;8.47;37.20;98737.28;5014016;28;20064;-78
2022/05/24 01:02:22;;;;;;;6.72;2.83;;;;;;;8.53;37.50;98745.91;5012176;28;20435;-79
2022/05/24 01:04:50;;;;;;;4.97;2.80;;;;;;;8.55;37.81;98753.72;4989944;28;20505;-79
2022/05/24 01:07:19;;;;;;;9.38;2.92;;;;;;;8.50;37.71;98739.91;5019115;28;20531;-79
2022/05/24 01:09:48;;;;;;;10.00;3.15;;;;;;;8.54;38.11;98738.97;5013559;28;20104;-79
2022/05/24 01:12:21;;;;;;;7.65;3.30;;;;;;;8.53;37.76;98745.91;4995727;28;20041;-79
2022/05/24 01:14:50;;;;;;;7.30;3.10;;;;;;;8.51;37.53;98724.25;5013720;28;20053;-79
2022/05/24 01:17:18;;;;;;;5.43;2.90;;;;;;;8.54;37.51;98746.78;5013358;28;20405;-79
2022/05/24 01:19:47;;;;;;;7.93;3.05;;;;;;;8.46;37.38;98731.22;5014042;28;20057;-78
2022/05/24 01:22:17;;;;;;;7.40;2.70;;;;;;;8.58;37.83;98740.69;4996797;28;20066;-79
2022/05/24 01:24:53;;;;;;;14.05;3.10;;;;;;;8.56;38.03;98745.03;5013735;28;20046;-78
2022/05/24 01:27:21;;;;;;;10.60;3.28;;;;;;;8.60;37.95;98754.56;5013442;28;20435;-78
2022/05/24 01:29:48;;;;;;;6.88;2.60;;;;;;;8.39;37.93;98722.56;5012606;28;20148;-78
2022/05/24 01:37:46;;;;;;;6.70;2.72;;;;;;;8.57;37.22;98771.06;5012595;28;20140;-79
2022/05/24 01:40:14;;;;;;;11.13;3.25;;;;;;;8.54;37.26;98749.38;5012223;28;20049;-78
2022/05/24 01:42:42;;;;;;;7.25;3.00;;;;;;;8.43;37.27;98738.19;5012098;28;20050;-78
2022/05/24 01:45:18;;;;;;;6.35;3.00;;;;;;;8.50;37.22;98756.38;5012704;28;20507;-78
2022/05/24 01:47:57;;;;;;;7.68;2.95;;;;;;;8.24;37.26;98712.25;4994812;28;20049;-78
2022/05/24 01:50:27;;;;;;;7.70;3.40;;;;;;;8.58;37.03;98759.78;5012621;28;20519;-77
2022/05/24 01:53:03;;;;;;;6.40;2.77;;;;;;;8.56;36.91;98760.66;5012430;28;20061;-77
2022/05/24 01:55:39;;;;;;;5.07;3.00;;;;;;;8.65;37.12;98763.22;5012658;28;20049;-77
2022/05/24 01:58:12;;;;;;;7.15;3.00;;;;;;;8.67;37.30;98764.06;5014762;28;20072;-78
2022/05/24 02:00:46;;;;;;;6.57;3.00;;;;;;;8.65;37.07;98758.00;5015531;28;20053;-78
2022/05/24 02:03:17;;;;;;;7.97;3.33;;;;;;;8.72;37.21;98759.69;5012405;28;20065;-79
2022/05/24 02:05:51;;;;;;;6.40;2.72;;;;;;;8.78;36.82;98757.06;5012304;28;20053;-79
2022/05/24 02:08:19;;;;;;;5.22;2.60;;;;;;;8.82;37.06;98760.50;5012319;28;20416;-77
2022/05/24 02:10:53;;;;;;;4.95;2.80;;;;;;;8.85;36.12;98752.66;5012272;28;20081;-78
2022/05/24 02:13:43;;;;;;;10.15;2.80;;;;;;;8.91;35.78;98757.81;5012169;28;20144;-79
2022/05/24 02:16:15;;;;;;;8.70;2.97;;;;;;;8.88;35.72;98747.41;5012580;28;20116;-78
2022/05/24 02:18:46;;;;;;;8.07;2.80;;;;;;;9.00;35.48;98769.91;5012208;28;20100;-78
2022/05/24 02:21:17;;;;;;;7.22;2.85;;;;;;;9.03;35.62;98767.28;5011770;28;20431;-78
2022/05/24 02:23:48;;;;;;;6.45;2.50;;;;;;;9.10;35.06;98768.97;5012104;28;20046;-79
2022/05/24 02:26:19;;;;;;;4.75;2.50;;;;;;;9.00;34.79;98741.25;4994969;28;20058;-78
2022/05/24 02:28:49;;;;;;;6.65;2.38;;;;;;;9.07;34.58;98742.94;5020266;28;20050;-79
2022/05/24 02:31:18;;;;;;;6.57;2.85;;;;;;;9.04;34.44;98731.69;5013907;28;20049;-79
2022/05/24 02:33:46;;;;;;;9.80;3.00;;;;;;;9.25;34.19;98765.38;5011853;28;20135;-78
2022/05/24 02:36:14;;;;;;;6.15;2.53;;;;;;;9.45;33.79;98766.94;4994585;28;20426;-79
2022/05/24 02:38:42;;;;;;;5.80;2.30;;;;;;;9.50;33.60;98771.19;5012071;28;20078;-78
2022/05/24 02:43:59;;;;;;;7.15;2.78;;;;;;;9.72;32.92;98737.09;5011878;28;20428;-79
2022/05/24 02:46:29;;;;;;;8.95;2.55;;;;;;;10.02;32.87;98767.16;5012694;28;20054;-78
2022/05/24 02:48:56;;;;;;;6.68;2.30;;;;;;;10.11;32.33;98768.81;5012498;28;20069;-80
2022/05/24 02:51:23;;;;;;;5.20;2.15;;;;;;;10.28;32.19;98772.06;5013182;28;20057;-78
2022/05/24 02:53:50;;;;;;;5.47;2.50;;;;;;;10.18;32.58;98747.84;5016385;28;20096;-78
2022/05/24 02:56:17;;;;;;;4.68;2.20;;;;;;;10.37;32.35;98777.22;5017071;28;20054;-78
2022/05/24 02:58:44;;;;;;;5.75;2.28;;;;;;;10.37;31.65;98771.16;5019340;28;20089;-78
2022/05/24 03:01:15;;;;;;;4.72;2.25;;;;;;;10.56;31.90;98784.78;5020824;28;20053;-79
2022/05/24 03:03:42;;;;;;;5.03;2.03;;;;;;;10.73;31.09;98766.28;5020154;28;20124;-77
2022/05/24 03:06:10;;;;;;;4.30;2.70;;;;;;;10.86;31.02;98757.34;5018769;28;20066;-78
2022/05/24 03:11:23;;;;;;;3.88;1.85;;;;;;;11.05;30.89;98769.25;4998630;28;20050;-78
2022/05/24 03:16:35;;;;;;;4.20;2.10;;;;;;;11.24;30.34;98775.03;5015262;28;20050;-79
2022/05/24 03:19:02;;;;;;;4.47;2.10;;;;;;;11.17;30.46;98770.81;4997732;28;20496;-78
2022/05/24 03:21:29;;;;;;;6.15;2.15;;;;;;;11.23;30.36;98760.25;5014867;28;20058;-78
2022/05/24 03:23:56;;;;;;;7.18;2.40;;;;;;;11.15;30.49;98751.69;5014723;28;20088;-79
2022/05/24 03:26:23;;;;;;;6.07;2.15;;;;;;;11.24;30.30;98741.06;5014914;28;20057;-79
2022/05/24 03:28:58;;;;;;;11.75;2.38;;;;;;;11.14;30.21;98723.84;4997511;28;20080;-78
2022/05/24 03:31:25;;;;;;;7.25;2.45;;;;;;;11.31;29.78;98746.19;5015515;28;20511;-80
2022/05/24 03:33:53;;;;;;;3.17;2.10;;;;;;;11.29;29.64;98730.53;5014978;28;20085;-79
2022/05/24 03:36:20;;;;;;;3.72;1.95;;;;;;;11.38;29.04;98735.59;5015406;28;20042;-79
2022/05/24 03:38:47;;;;;;;4.63;2.35;;;;;;;11.31;28.80;98727.88;5014857;28;20149;-79
2022/05/24 03:41:14;;;;;;;6.18;2.03;;;;;;;11.26;28.42;98735.81;5016420;28;20060;-78
2022/05/24 03:43:41;;;;;;;4.53;1.98;;;;;;;11.12;28.30;98716.88;5015424;28;20547;-77
2022/05/24 03:46:10;;;;;;;4.18;1.92;;;;;;;11.40;28.09;98749.53;5015335;28;20053;-77
2022/05/24 03:48:38;;;;;;;2.40;1.70;;;;;;;11.44;28.12;98740.72;5015191;28;20050;-79
2022/05/24 03:51:06;;;;;;;4.43;2.15;;;;;;;11.58;27.86;98726.53;5017665;28;20060;-79
2022/05/24 03:53:34;;;;;;;3.55;2.10;;;;;;;11.79;27.64;98740.97;5035116;28;20081;-79
2022/05/24 03:56:01;;;;;;;3.38;2.30;;;;;;;11.81;27.67;98719.09;5035160;28;20084;-79
2022/05/24 03:58:29;;;;;;;7.88;2.17;;;;;;;12.14;27.65;98742.91;5035209;28;20112;-78
2022/05/24 04:00:57;;;;;;;5.40;2.25;;;;;;;12.26;27.33;98726.06;5035285;28;20077;-79
2022/05/24 04:03:24;;;;;;;5.22;2.33;;;;;;;12.40;26.98;98744.09;5033877;28;20057;-79
2022/05/24 04:05:51;;;;;;;3.85;2.15;;;;;;;12.64;27.21;98740.91;5011711;28;20489;-78
2022/05/24 04:08:24;;;;;;;5.47;2.20;;;;;;;12.82;26.76;98747.50;5029650;28;20053;-79
2022/05/24 04:11:02;;;;;;;3.97;2.20;;;;;;;13.04;26.36;98734.75;5038401;28;20061;-77
2022/05/24 04:13:29;;;;;;;6.35;2.15;;;;;;;13.28;26.13;98746.41;5045011;28;20061;-79
2022/05/24 04:15:56;;;;;;;8.13;2.17;;;;;;;13.45;25.87;98732.88;5034714;28;20136;-79
2022/05/24 04:18:24;;;;;;;8.73;2.33;;;;;;;13.49;25.83;98731.88;5015655;28;20569;-78
2022/05/24 04:20:54;;;;;;;11.50;2.72;;;;;;;13.79;25.69;98724.09;5033490;28;20142;-78
2022/05/24 04:23:25;;;;;;;10.85;2.75;;;;;;;13.93;25.51;98705.31;5033580;28;20053;-77
2022/05/24 04:25:53;;;;;;;4.28;1.80;;;;;;;13.92;25.01;98707.09;5033667;28;20060;-78
2022/05/24 04:28:22;;;;;;;5.22;2.00;;;;;;;14.11;25.18;98714.41;5033422;28;20107;-78
2022/05/24 04:30:50;;;;;;;5.00;2.50;;;;;;;14.19;25.20;98716.81;5033311;28;20523;-78
2022/05/24 04:33:19;;;;;;;3.72;2.30;;;;;;;14.43;25.10;98710.84;5033306;28;20592;-79
2022/05/24 04:35:46;;;;;;;6.38;2.47;;;;;;;14.39;24.28;98667.19;5015723;28;20081;-78
2022/05/24 04:38:13;;;;;;;5.93;1.83;;;;;;;14.61;24.39;98692.81;5013635;28;20168;-80
2022/05/24 04:43:25;;;;;;;7.45;2.38;;;;;;;14.22;25.13;98700.97;5023317;28;20080;-78
2022/05/24 04:45:53;;;;;;;4.47;2.53;;;;;;;13.95;25.62;98710.53;5021765;28;20049;-78
2022/05/24 04:48:24;;;;;;;5.32;2.45;;;;;;;13.73;25.82;98677.03;5003084;28;20054;-77
2022/05/24 04:50:57;;;;;;;7.35;2.83;;;;;;;13.75;26.12;98697.97;4996094;28;20424;-78
2022/05/24 04:53:27;;;;;;;5.20;2.30;;;;;;;13.48;26.50;98688.16;5014643;28;20061;-79
2022/05/24 04:55:56;;;;;;;6.63;2.58;;;;;;;13.58;26.85;98715.03;5015433;28;20073;-80
2022/05/24 04:58:25;;;;;;;5.72;2.45;;;;;;;13.47;26.55;98698.72;5014608;28;20053;-78
2022/05/24 05:00:52;;;;;;;6.15;2.50;;;;;;;13.45;26.89;98695.28;5013604;28;20106;-80
2022/05/24 05:03:21;;;;;;;7.38;2.15;;;;;;;13.46;26.69;98702.25;5013878;28;20144;-78
2022/05/24 05:05:51;;;;;;;7.45;2.33;;;;;;;13.41;26.83;98701.50;5023636;28;20111;-80
2022/05/24 05:08:18;;;;;;;8.70;2.90;;;;;;;13.34;26.68;98706.06;5026818;28;20046;-79
2022/05/24 05:10:46;;;;;;;6.45;2.75;;;;;;;13.42;26.28;98677.00;5032746;28;20057;-79
2022/05/24 05:13:15;;;;;;;6.35;2.50;;;;;;;13.55;26.34;98696.75;5032635;28;20115;-78
2022/05/24 05:15:43;;;;;;;8.35;2.83;;;;;;;13.66;26.16;98694.69;5031586;28;20553;-79
2022/05/24 05:18:16;;;;;;;11.10;2.70;;;;;;;13.61;26.22;98686.06;5030941;28;20400;-77
2022/05/24 05:20:47;;;;;;;6.65;2.53;;;;;;;13.62;25.57;98716.69;5032513;28;20067;-77
2022/05/24 05:23:16;;;;;;;8.93;3.22;;;;;;;13.03;25.30;98690.22;5015713;28;20057;-79
2022/05/24 05:25:47;;;;;;;8.73;2.50;;;;;;;12.73;25.56;98716.25;5033120;28;20065;-78
2022/05/24 05:28:18;;;;;;;4.20;2.17;;;;;;;12.41;25.97;98699.56;5033504;28;20059;-79
2022/05/24 05:33:34;;;;;;;9.55;2.78;;;;;;;12.25;26.15;98701.63;5032595;28;20503;-77
2022/05/24 05:36:03;;;;;;;4.90;2.58;;;;;;;12.44;26.14;98694.22;5015018;28;20144;-81
2022/05/24 05:38:31;;;;;;;7.32;2.47;;;;;;;12.70;25.77;98692.75;5031620;28;20061;-79
2022/05/24 05:40:59;;;;;;;7.13;2.17;;;;;;;12.78;25.29;98709.16;5021489;28;20064;-79
2022/05/24 05:43:27;;;;;;;4.63;2.78;;;;;;;12.68;24.90;98692.78;5013147;28;20516;-79
2022/05/24 05:45:57;;;;;;;6.28;2.30;;;;;;;12.86;24.69;98716.84;5002085;28;20061;-79
2022/05/24 05:48:27;;;;;;;5.10;2.20;;;;;;;12.84;24.42;98723.88;5032914;28;20053;-77
2022/05/24 05:50:55;;;;;;;6.72;2.45;;;;;;;12.94;24.72;98717.50;5025581;28;20516;-79
2022/05/24 05:53:22;;;;;;;6.28;2.83;;;;;;;12.97;24.90;98724.44;5014645;28;20046;-78
2022/05/24 05:55:51;;;;;;;4.53;2.30;;;;;;;12.93;24.89;98746.38;5012463;28;20054;-78
2022/05/24 05:58:19;;;;;;;5.43;2.28;;;;;;;12.72;25.18;98746.00;5002796;28;20057;-80
2022/05/24 06:00:48;;;;;;;6.00;2.58;;;;;;;12.63;25.34;98726.09;5025636;28;20088;-80
2022/05/24 06:03:17;;;;;;;6.82;2.72;;;;;;;12.63;25.54;98744.44;5009032;28;20153;-77
2022/05/24 06:05:48;;;;;;;5.50;2.35;;;;;;;12.38;25.68;98744.13;5023480;28;20065;-79
2022/05/24 06:08:18;;;;;;;4.43;2.25;;;;;;;12.25;25.88;98734.81;5006973;28;20652;-80
2022/05/24 06:10:48;;;;;;;3.42;1.60;;;;;;;11.60;25.87;98634.06;4974145;28;20105;-80
2022/05/24 06:13:15;;;;;;;3.83;2.50;;;;;;;12.36;26.36;98734.59;5006355;28;20066;-81
2022/05/24 06:15:49;;;;;;;4.90;3.00;;;;;;;12.55;26.02;98740.28;4990468;28;20431;-80
2022/05/24 06:18:20;;;;;;;3.72;1.95;;;;;;;12.50;25.81;98741.25;5007060;28;20289;-79
2022/05/24 06:20:49;;;;;;;6.45;2.30;;;;;;;12.45;26.31;98748.34;4991285;28;20058;-80
2022/05/24 06:23:16;;;;;;;7.07;2.83;;;;;;;12.68;26.63;98757.44;5007781;28;20066;-79
2022/05/24 06:25:43;;;;;;;4.25;2.17;;;;;;;13.10;25.90;98741.63;5010899;28;20640;-79
2022/05/24 06:28:16;;;;;;;4.10;2.22;;;;;;;13.16;26.24;98735.34;5012111;28;20057;-80
2022/05/24 06:30:44;;;;;;;6.05;2.20;;;;;;;13.26;26.81;98745.56;4996323;28;20140;-81
2022/05/24 06:33:13;;;;;;;6.85;2.30;;;;;;;13.19;27.23;98756.25;4996557;28;20606;-80
2022/05/24 06:35:43;;;;;;;;;;;;;;;13.04;27.31;98741.75;5019797;28;20088;-79
2022/05/24 06:38:11;;;;;;;3.92;2.20;;;;;;;13.12;27.24;98710.97;5012927;28;20306;-80
2022/05/24 06:40:38;;;;;;;3.65;1.92;;;;;;;13.46;27.60;98747.69;5009970;28;20054;-78
2022/05/24 06:43:06;;;;;;;4.85;2.00;;;;;;;13.67;27.21;98713.91;5010975;28;20050;-81
2022/05/24 06:45:34;;;;;;;6.30;1.88;;;;;;;13.87;26.98;98742.22;5019358;28;20494;-76
2022/05/24 06:48:01;;;;;;;4.55;1.77;;;;;;;14.08;26.41;98741.63;5024813;28;20057;-78
2022/05/24 06:50:28;;;;;;;3.83;1.92;;;;;;;13.71;26.84;98729.53;5020623;28;20140;-79
2022/05/24 06:52:56;;;;;;;5.50;2.10;;;;;;;13.64;26.87;98741.13;5007210;28;20103;-78
2022/05/24 06:55:24;;;;;;;3.03;1.80;;;;;;;13.81;26.85;98758.16;5027308;28;20064;-77
2022/05/24 06:57:51;;;;;;;3.65;2.50;;;;;;;13.81;26.80;98753.78;5032856;28;20868;-77
2022/05/24 07:03:09;;;;;;;8.35;2.40;;;;;;;14.00;26.72;98746.22;5033900;28;20053;-78
2022/05/24 07:05:36;;;;;;;;;;;;;;;13.83;26.82;98749.34;5016171;28;20061;-78
2022/05/24 07:08:04;;;;;;;5.38;2.05;;;;;;;13.63;26.56;98715.75;5033527;28;19929;-78
2022/05/24 07:10:34;;;;;;;8.02;2.08;;;;;;;13.55;26.55;98724.75;5033593;28;20054;-78
2022/05/24 07:13:11;;;;;;;4.40;1.83;;;;;;;13.59;26.68;98768.38;5031586;28;20468;-77
2022/05/24 07:15:39;;;;;;;6.53;2.25;;;;;;;13.56;26.66;98756.19;5032830;28;20107;-77
2022/05/24 07:18:07;;;;;;;6.30;2.30;;;;;;;13.65;26.64;98776.06;5032010;28;20107;-77
2022/05/24 07:20:36;;;;;;;4.72;1.80;;;;;;;13.42;26.47;98743.44;5030031;28;20054;-78
2022/05/24 07:23:15;;;;;;;6.75;2.25;;;;;;;13.39;27.18;98761.03;5019807;28;20065;-77
2022/05/24 07:25:44;;;;;;;12.18;2.95;;;;;;;13.64;27.19;98742.88;5030304;28;20058;-78
2022/05/24 07:28:16;;;;;;;8.57;2.85;;;;;;;13.65;27.14;98748.06;5014493;28;20521;-77
2022/05/24 07:30:43;;;;;;;3.97;1.70;;;;;;;13.59;27.24;98765.75;5015745;28;20165;-81
2022/05/24 07:33:12;;;;;;;4.35;2.40;;;;;;;13.44;27.66;98775.75;5021960;28;20523;-79
2022/05/24 07:35:40;;;;;;;4.00;2.40;;;;;;;13.23;27.91;98765.78;5013358;28;20115;-79
2022/05/24 07:38:09;;;;;;;7.10;2.10;;;;;;;13.15;28.57;98792.16;5014338;28;20060;-78
2022/05/24 07:46:12;;;;;;;4.72;2.20;;;;;;;12.42;30.04;98760.63;5024033;28;20437;-78
2022/05/24 07:48:39;;;;;;;5.90;2.20;;;;;;;12.49;30.60;98793.66;5015003;28;20144;-79
2022/05/24 07:51:07;;;;;;;4.78;1.88;;;;;;;12.30;30.77;98772.22;5013073;28;20084;-78
2022/05/24 07:53:35;;;;;;;8.70;2.60;;;;;;;12.15;31.28;98807.44;5019906;28;20052;-79
2022/05/24 07:56:02;;;;;;;3.45;1.80;;;;;;;12.17;31.86;98796.94;4986101;28;20054;-78
2022/05/24 07:58:30;;;;;;;3.17;1.70;;;;;;;11.55;32.25;98781.50;5005644;28;20585;-78
2022/05/24 08:00:58;;;;;;;9.52;2.50;;;;;;;11.53;33.08;98807.69;5013704;28;20128;-79
2022/05/24 08:03:28;;;;;;;5.28;2.30;;;;;;;11.48;33.09;98794.69;4997067;28;20061;-79
2022/05/24 08:05:56;;;;;;;4.57;2.20;;;;;;;11.48;32.95;98830.44;5013538;28;20057;-79
2022/05/24 08:08:24;;;;;;;6.13;2.10;;;;;;;11.23;32.94;98815.16;5028463;28;20054;-79
2022/05/24 08:10:51;;;;;;;6.78;2.20;;;;;;;11.06;33.46;98804.97;4996036;28;20062;-79
2022/05/24 08:13:19;;;;;;;3.95;1.83;;;;;;;10.96;33.92;98820.81;5021833;28;20124;-78
2022/05/24 08:15:51;;;;;;;5.70;2.28;;;;;;;10.93;34.68;98854.84;4999623;28;20081;-79
2022/05/24 08:18:21;;;;;;;5.68;2.42;;;;;;;10.93;35.27;98867.91;4998041;28;20487;-78
2022/05/24 08:20:48;;;;;;;3.15;1.98;;;;;;;10.81;35.38;98864.53;5017416;28;20062;-79
2022/05/24 08:23:18;;;;;;;4.47;2.33;;;;;;;10.50;35.99;98826.69;5013563;28;20050;-80
2022/05/24 08:25:45;;;;;;;6.93;2.45;;;;;;;10.27;36.92;98848.66;5011086;28;20053;-79
2022/05/24 08:28:12;;;;;;;8.15;2.47;;;;;;;10.37;36.27;98841.63;4994404;28;20099;-79
2022/05/24 08:31:06;;;;;;;4.80;2.03;;;;;;;10.47;36.55;98868.47;5014302;28;20409;-79
2022/05/24 08:33:44;;;;;;;3.88;1.70;;;;;;;10.21;37.38;98899.16;5011851;28;20115;-80
2022/05/24 08:36:12;;;;;;;5.90;2.00;;;;;;;9.78;38.27;98862.22;4994385;28;20426;-79
2022/05/24 08:38:41;;;;;;;4.90;1.85;;;;;;;9.99;38.03;98903.75;4994441;28;20130;-79
2022/05/24 08:41:28;;;;;;;4.22;1.95;;;;;;;9.75;38.16;98864.84;5013646;28;20057;-79
2022/05/24 08:49:57;;;;;;;4.57;2.30;;;;;;;9.89;38.55;98902.09;5030335;28;20144;-79
2022/05/24 08:52:35;;;;;;;6.57;2.75;;;;;;;10.22;38.23;98926.16;5029777;28;20522;-78
2022/05/24 08:55:03;;;;;;;5.38;2.15;;;;;;;10.19;38.21;98900.94;5001160;28;20121;-78
2022/05/24 08:57:50;;;;;;;8.73;3.00;;;;;;;10.22;38.75;98913.97;5018360;28;20065;-78
2022/05/24 09:00:25;;;;;;;6.50;2.83;;;;;;;10.42;38.41;98925.97;5013216;28;20068;-82
2022/05/24 09:02:52;;;;;;;3.50;1.98;;;;;;;10.54;37.88;98925.84;5013534;28;20064;-83
2022/05/24 09:05:32;;;;;;;6.47;2.22;;;;;;;10.60;38.12;98930.09;4995486;28;20053;-81
2022/05/24 09:08:24;;;;;;;4.78;2.17;;;;;;;10.39;38.00;98945.16;5013455;28;20507;-78
2022/05/24 09:10:59;;;;;;;2.17;1.85;;;;;;;10.16;39.11;98953.16;5013347;28;20061;-79
2022/05/24 09:13:41;;;;;;;2.67;1.80;;;;;;;10.05;39.17;98965.44;5013349;28;20050;-79
2022/05/24 09:16:15;;;;;;;3.92;2.35;;;;;;;10.05;38.84;98962.84;5013039;28;20042;-80
2022/05/24 09:19:01;;;;;;;9.50;2.33;;;;;;;10.31;38.67;98951.31;4995164;28;20092;-77
2022/05/24 09:21:35;;;;;;;2.50;2.28;;;;;;;10.31;38.83;98961.78;5012973;28;20428;-83
2022/05/24 09:24:11;;;;;;;8.07;2.30;;;;;;;10.42;38.35;98959.91;4995415;28;20074;-79
2022/05/24 09:27:17;;;;;;;4.45;2.40;;;;;;;10.56;38.23;98964.97;5013411;28;20144;-83
2022/05/24 09:29:57;;;;;;;5.13;2.17;;;;;;;10.81;37.81;98976.00;5013065;28;20062;-78
2022/05/24 09:32:47;;;;;;;7.25;2.13;;;;;;;10.61;36.85;98888.31;4996980;28;20104;-81
2022/05/24 09:35:18;;;;;;;3.78;2.10;;;;;;;11.17;37.23;98945.94;5000923;28;20073;-81
2022/05/24 09:38:02;;;;;;;6.90;2.65;;;;;;;11.68;36.39;98964.38;5031571;28;20470;-81
2022/05/24 09:40:44;;;;;;;8.10;2.50;;;;;;;12.29;35.26;98959.91;5015537;28;20092;-79
2022/05/24 09:43:40;;;;;;;5.03;2.60;;;;;;;12.80;34.87;98964.19;5034521;28;20553;-84
2022/05/24 09:46:28;;;;;;;4.72;2.10;;;;;;;12.86;33.80;98968.44;5029018;28;20065;-79
2022/05/24 09:49:03;;;;;;;6.43;2.38;;;;;;;12.70;34.31;98960.03;5032754;28;20107;-79
2022/05/24 09:51:38;;;;;;;4.43;2.40;;;;;;;12.85;34.17;99012.13;5032989;28;20053;-80
2022/05/24 09:54:13;;;;;;;10.27;2.88;;;;;;;12.53;34.73;98986.53;5014910;28;20059;-80
2022/05/24 09:57:10;;;;;;;5.72;2.60;;;;;;;11.81;35.65;99006.91;5032622;28;20057;-82
2022/05/24 09:59:41;;;;;;;4.90;2.45;;;;;;;11.18;36.97;98991.25;5032800;28;20045;-81
2022/05/24 10:02:30;;;;;;;6.03;2.70;;;;;;;11.07;38.04;99007.91;5036073;28;20107;-80
2022/05/24 10:04:58;;;;;;;7.17;2.50;;;;;;;11.37;37.53;99015.41;5034638;28;20143;-80
2022/05/24 10:07:33;;;;;;;8.00;2.20;;;;;;;11.64;37.36;99003.69;5036527;28;20081;-82
2022/05/24 10:10:21;;;;;;;6.03;2.78;;;;;;;11.58;37.34;99009.00;5036386;28;20080;-82
2022/05/24 10:13:12;;;;;;;6.38;2.75;;;;;;;11.34;37.79;99016.31;5036173;28;20053;-79
2022/05/24 10:16:10;;;;;;;3.42;1.95;;;;;;;11.08;38.69;99011.41;5036260;28;20085;-82
2022/05/24 10:19:13;;;;;;;4.45;2.88;;;;;;;10.88;38.44;99018.59;5018893;28;20053;-79
2022/05/24 10:21:51;;;;;;;4.63;2.03;;;;;;;10.53;39.65;99028.53;5036021;28;20053;-80
2022/05/24 10:24:56;;;;;;;4.70;2.00;;;;;;;10.23;39.90;99040.09;5036574;28;20048;-78
2022/05/24 10:27:53;;;;;;;3.95;2.60;;;;;;;9.89;40.00;98998.59;5036408;28;20071;-80
2022/05/24 10:30:29;;;;;;;5.03;2.80;;;;;;;10.10;39.89;99033.25;5036541;28;20084;-80
2022/05/24 10:39:45;;;;;;;5.20;2.50;;;;;;;10.03;39.52;99041.13;5042556;28;20140;-79
2022/05/24 10:42:31;;;;;;;7.15;2.60;;;;;;;10.03;39.62;99033.28;5038460;28;20057;-79
2022/05/24 10:45:07;;;;;;;4.90;2.30;;;;;;;10.22;38.92;99026.19;5045062;28;20526;-81
2022/05/24 10:47:46;;;;;;;6.20;2.38;;;;;;;10.51;39.61;99051.19;5034236;28;20053;-80
2022/05/24 10:50:34;;;;;;;9.50;2.90;;;;;;;10.55;39.25;99055.50;5049556;28;20055;-80
2022/05/24 10:53:09;;;;;;;5.93;2.33;;;;;;;10.52;39.28;99072.94;5045528;28;20140;-81
2022/05/24 10:56:00;;;;;;;5.28;2.97;;;;;;;10.45;39.38;99070.41;5033014;28;20086;-83
2022/05/24 10:58:34;;;;;;;8.45;2.78;;;;;;;10.26;39.28;99053.13;5024961;28;20089;-81
2022/05/24 11:01:13;;;;;;;6.25;2.60;;;;;;;10.01;39.60;99071.56;5019868;28;20144;-81
2022/05/24 11:03:45;;;;;;;8.63;2.38;;;;;;;10.07;40.14;99082.84;4998883;28;20050;-80
2022/05/24 11:06:27;;;;;;;3.10;2.33;;;;;;;9.95;40.17;99063.78;5016189;28;20519;-78
2022/05/24 11:09:18;;;;;;;6.45;2.45;;;;;;;10.05;40.52;99070.69;5016426;28;20085;-80
2022/05/24 11:12:12;;;;;;;2.90;2.00;;;;;;;10.53;39.28;99074.69;5016015;28;20061;-80
2022/05/24 11:14:47;;;;;;;6.70;2.60;;;;;;;11.10;38.61;99082.81;5029305;28;20065;-77
2022/05/24 11:17:18;;;;;;;9.70;2.60;;;;;;;11.59;38.03;99076.13;5035631;28;20061;-79
2022/05/24 11:19:50;;;;;;;4.72;2.45;;;;;;;11.66;37.33;99073.41;5001466;28;20510;-79
2022/05/24 11:22:36;;;;;;;6.22;2.40;;;;;;;11.19;37.21;99053.09;5034814;28;20053;-78
2022/05/24 11:25:30;;;;;;;6.20;2.20;;;;;;;11.15;37.03;99074.94;5018351;28;20041;-81
2022/05/24 11:27:59;;;;;;;6.75;3.10;;;;;;;10.58;38.74;99091.16;5035267;28;20049;-80
2022/05/24 11:30:28;;;;;;;8.70;2.70;;;;;;;10.24;39.80;99084.47;5035566;28;20132;-82
2022/05/24 11:33:05;;;;;;;5.07;2.67;;;;;;;10.24;39.83;99091.44;5018050;28;20045;-80
2022/05/24 11:35:36;;;;;;;10.07;2.65;;;;;;;10.31;39.67;99100.97;5039973;28;20115;-79
2022/05/24 11:38:23;;;;;;;7.15;2.35;;;;;;;10.38;39.83;99104.41;5043237;28;20092;-81
2022/05/24 11:41:19;;;;;;;4.97;2.30;;;;;;;10.52;39.29;99105.16;5045642;28;20064;-82
2022/05/24 11:43:48;;;;;;;5.93;1.77;;;;;;;10.60;39.15;99113.81;5028783;28;20514;-82
2022/05/24 11:46:34;;;;;;;2.75;1.92;;;;;;;10.85;38.85;99101.38;5024057;28;20045;-78
2022/05/24 11:49:12;;;;;;;2.28;2.08;;;;;;;11.03;38.29;99115.13;5025019;28;20069;-79
2022/05/24 11:51:45;;;;;;;4.88;2.03;;;;;;;11.12;38.77;99115.03;5015111;28;20127;-80
2022/05/24 11:54:19;;;;;;;5.07;2.20;;;;;;;11.24;37.87;99125.34;5016160;28;20100;-79
2022/05/24 11:57:02;;;;;;;4.05;2.25;;;;;;;11.02;38.15;99124.72;5014387;28;20081;-79
2022/05/24 11:59:41;;;;;;;4.22;2.30;;;;;;;11.02;38.18;99123.84;5014098;28;20471;-83
2022/05/24 12:02:32;;;;;;;4.00;2.17;;;;;;;11.20;38.05;99123.66;5017405;28;20046;-81
2022/05/24 12:08:26;;;;;;;5.18;1.92;;;;;;;11.19;38.14;99132.38;5014594;28;20061;-81
2022/05/24 12:11:14;;;;;;;2.17;1.75;;;;;;;11.27;38.04;99120.09;5014796;28;20582;-82
2022/05/24 12:13:44;;;;;;;4.03;1.60;;;;;;;11.59;37.13;99125.81;5013488;28;20494;-79
2022/05/24 12:16:32;;;;;;;2.70;1.55;;;;;;;11.71;36.91;99117.81;5014316;28;20478;-82
2022/05/24 12:19:07;;;;;;;4.35;1.80;;;;;;;12.00;36.68;99119.19;5014582;28;20054;-81
2022/05/24 12:21:59;;;;;;;3.05;1.33;;;;;;;11.85;36.16;99120.25;5025063;28;20053;-80
2022/05/24 12:24:44;;;;;;;5.80;1.80;;;;;;;11.35;36.84;99134.81;5013643;28;20069;-79
2022/05/24 12:27:20;;;;;;;2.35;1.70;;;;;;;11.10;37.21;99132.50;4997682;28;20117;-82
2022/05/24 12:29:55;;;;;;;3.83;2.00;;;;;;;10.45;38.33;99101.75;5014083;28;20042;-82
2022/05/24 12:32:25;;;;;;;3.40;1.60;;;;;;;10.58;38.55;99146.00;4996828;28;20061;-85
2022/05/24 12:34:52;;;;;;;2.42;1.65;;;;;;;10.48;38.67;99140.00;5014171;28;20057;-82
2022/05/24 12:37:33;;;;;;;3.38;1.80;;;;;;;10.39;38.71;99164.44;5014147;28;20046;-83
2022/05/24 12:40:24;;;;;;;1.90;1.30;;;;;;;10.56;38.48;99161.72;5014001;28;20393;-83
2022/05/24 12:42:56;;;;;;;3.75;1.50;;;;;;;10.84;38.04;99162.34;5014378;28;20054;-84
2022/05/24 12:45:35;;;;;;;2.42;1.20;;;;;;;10.89;37.42;99159.69;4997420;28;20054;-84
2022/05/24 12:48:36;;;;;;;3.05;1.10;;;;;;;11.11;36.42;99167.31;4950517;28;20050;-84